sensor_id;sensor_type;location;lat;lon;timestamp;P1;durP1;ratioP1;P2;durP2;ratioP2
20318;SDS011;10317;47.254;11.314;2023-08-06T00:02:24;2.90;;;1.90;;
20318;SDS011;10317;47.254;11.314;2023-08-06T00:04:50;2.00;;;1.90;;
20318;SDS011;10317;47.254;11.314;2023-08-06T00:07:16;2.08;;;1.98;;
20318;SDS011;10317;47.254;11.314;2023-08-06T00:09:41;1.63;;;1.52;;
20318;SDS011;10317;47.254;11.314;2023-08-06T00:12:07;3.55;;;1.75;;
20318;SDS011;10317;47.254;11.314;2023-08-06T00:14:33;2.85;;;2.13;;
20318;SDS011;10317;47.254;11.314;2023-08-06T00:16:59;4.45;;;3.05;;
20318;SDS011;10317;47.254;11.314;2023-08-06T00:19:25;3.92;;;2.03;;
20318;SDS011;10317;47.254;11.314;2023-08-06T00:21:50;2.10;;;2.00;;
20318;SDS011;10317;47.254;11.314;2023-08-06T00:24:16;2.15;;;2.05;;
20318;SDS011;10317;47.254;11.314;2023-08-06T00:26:42;2.47;;;2.00;;
20318;SDS011;10317;47.254;11.314;2023-08-06T00:29:07;3.90;;;1.98;;
20318;SDS011;10317;47.254;11.314;2023-08-06T00:31:33;2.15;;;1.95;;
20318;SDS011;10317;47.254;11.314;2023-08-06T00:33:58;2.25;;;2.10;;
20318;SDS011;10317;47.254;11.314;2023-08-06T00:36:24;2.20;;;2.05;;
20318;SDS011;10317;47.254;11.314;2023-08-06T00:38:50;2.13;;;1.92;;
20318;SDS011;10317;47.254;11.314;2023-08-06T00:41:15;1.80;;;1.70;;
20318;SDS011;10317;47.254;11.314;2023-08-06T00:43:41;1.55;;;1.45;;
20318;SDS011;10317;47.254;11.314;2023-08-06T00:46:06;1.83;;;1.77;;
20318;SDS011;10317;47.254;11.314;2023-08-06T00:48:32;2.10;;;2.00;;
20318;SDS011;10317;47.254;11.314;2023-08-06T00:50:58;2.33;;;2.13;;
20318;SDS011;10317;47.254;11.314;2023-08-06T00:53:24;5.20;;;2.63;;
20318;SDS011;10317;47.254;11.314;2023-08-06T00:55:50;2.97;;;2.45;;
20318;SDS011;10317;47.254;11.314;2023-08-06T00:58:16;2.45;;;2.25;;
20318;SDS011;10317;47.254;11.314;2023-08-06T01:00:42;1.92;;;1.83;;
20318;SDS011;10317;47.254;11.314;2023-08-06T01:03:08;2.33;;;1.83;;
20318;SDS011;10317;47.254;11.314;2023-08-06T01:05:34;1.77;;;1.67;;
20318;SDS011;10317;47.254;11.314;2023-08-06T01:13:31;2.33;;;2.00;;
20318;SDS011;10317;47.254;11.314;2023-08-06T01:16:27;4.00;;;2.08;;
20318;SDS011;10317;47.254;11.314;2023-08-06T01:18:55;1.48;;;1.48;;
20318;SDS011;10317;47.254;11.314;2023-08-06T01:21:23;2.20;;;2.10;;
20318;SDS011;10317;47.254;11.314;2023-08-06T01:23:49;2.10;;;2.00;;
20318;SDS011;10317;47.254;11.314;2023-08-06T01:31:36;3.05;;;2.05;;
20318;SDS011;10317;47.254;11.314;2023-08-06T01:34:05;2.05;;;1.77;;
20318;SDS011;10317;47.254;11.314;2023-08-06T01:36:34;2.50;;;2.03;;
20318;SDS011;10317;47.254;11.314;2023-08-06T01:39:01;2.97;;;2.28;;
20318;SDS011;10317;47.254;11.314;2023-08-06T01:41:27;1.95;;;1.50;;
20318;SDS011;10317;47.254;11.314;2023-08-06T01:43:52;2.60;;;2.08;;
20318;SDS011;10317;47.254;11.314;2023-08-06T01:46:18;2.45;;;2.25;;
20318;SDS011;10317;47.254;11.314;2023-08-06T01:48:43;2.42;;;2.25;;
20318;SDS011;10317;47.254;11.314;2023-08-06T01:51:09;2.72;;;2.03;;
20318;SDS011;10317;47.254;11.314;2023-08-06T01:53:35;3.50;;;2.15;;
20318;SDS011;10317;47.254;11.314;2023-08-06T01:56:01;1.60;;;1.60;;
20318;SDS011;10317;47.254;11.314;2023-08-06T01:58:26;2.45;;;2.25;;
20318;SDS011;10317;47.254;11.314;2023-08-06T02:00:52;2.20;;;2.10;;
20318;SDS011;10317;47.254;11.314;2023-08-06T02:03:18;2.00;;;1.90;;
20318;SDS011;10317;47.254;11.314;2023-08-06T02:05:43;3.22;;;2.30;;
20318;SDS011;10317;47.254;11.314;2023-08-06T02:08:10;2.38;;;2.17;;
20318;SDS011;10317;47.254;11.314;2023-08-06T02:10:36;2.25;;;2.15;;
20318;SDS011;10317;47.254;11.314;2023-08-06T02:13:02;1.88;;;1.77;;
20318;SDS011;10317;47.254;11.314;2023-08-06T02:15:27;2.88;;;2.00;;
20318;SDS011;10317;47.254;11.314;2023-08-06T02:17:53;1.85;;;1.75;;
20318;SDS011;10317;47.254;11.314;2023-08-06T02:20:19;1.77;;;1.67;;
20318;SDS011;10317;47.254;11.314;2023-08-06T02:22:45;4.47;;;2.03;;
20318;SDS011;10317;47.254;11.314;2023-08-06T02:25:11;3.70;;;2.20;;
20318;SDS011;10317;47.254;11.314;2023-08-06T02:27:37;3.15;;;2.10;;
20318;SDS011;10317;47.254;11.314;2023-08-06T02:30:03;2.08;;;1.95;;
20318;SDS011;10317;47.254;11.314;2023-08-06T02:32:29;1.90;;;1.80;;
20318;SDS011;10317;47.254;11.314;2023-08-06T02:34:56;2.90;;;1.75;;
20318;SDS011;10317;47.254;11.314;2023-08-06T02:37:22;2.13;;;1.88;;
20318;SDS011;10317;47.254;11.314;2023-08-06T02:39:48;1.90;;;1.90;;
20318;SDS011;10317;47.254;11.314;2023-08-06T02:42:13;2.00;;;1.90;;
20318;SDS011;10317;47.254;11.314;2023-08-06T02:44:39;2.15;;;1.42;;
20318;SDS011;10317;47.254;11.314;2023-08-06T02:47:05;2.00;;;1.90;;
20318;SDS011;10317;47.254;11.314;2023-08-06T02:49:31;2.45;;;1.88;;
20318;SDS011;10317;47.254;11.314;2023-08-06T02:51:56;1.80;;;1.70;;
20318;SDS011;10317;47.254;11.314;2023-08-06T02:54:22;1.90;;;1.80;;
20318;SDS011;10317;47.254;11.314;2023-08-06T02:56:48;3.67;;;1.92;;
20318;SDS011;10317;47.254;11.314;2023-08-06T02:59:13;5.22;;;2.08;;
20318;SDS011;10317;47.254;11.314;2023-08-06T03:01:39;2.15;;;1.70;;
20318;SDS011;10317;47.254;11.314;2023-08-06T03:04:05;1.77;;;1.67;;
20318;SDS011;10317;47.254;11.314;2023-08-06T03:06:31;2.22;;;2.08;;
20318;SDS011;10317;47.254;11.314;2023-08-06T03:08:56;1.60;;;1.60;;
20318;SDS011;10317;47.254;11.314;2023-08-06T03:11:22;1.85;;;1.75;;
20318;SDS011;10317;47.254;11.314;2023-08-06T03:13:48;2.20;;;2.00;;
20318;SDS011;10317;47.254;11.314;2023-08-06T03:16:14;2.30;;;2.15;;
20318;SDS011;10317;47.254;11.314;2023-08-06T03:18:39;2.92;;;1.85;;
20318;SDS011;10317;47.254;11.314;2023-08-06T03:21:05;1.80;;;1.70;;
20318;SDS011;10317;47.254;11.314;2023-08-06T03:23:31;1.80;;;1.70;;
20318;SDS011;10317;47.254;11.314;2023-08-06T03:26:03;2.00;;;1.90;;
20318;SDS011;10317;47.254;11.314;2023-08-06T03:28:29;1.73;;;1.63;;
20318;SDS011;10317;47.254;11.314;2023-08-06T03:30:59;2.17;;;2.05;;
20318;SDS011;10317;47.254;11.314;2023-08-06T03:33:28;2.22;;;2.13;;
20318;SDS011;10317;47.254;11.314;2023-08-06T03:35:54;3.25;;;1.92;;
20318;SDS011;10317;47.254;11.314;2023-08-06T03:38:19;1.70;;;1.63;;
20318;SDS011;10317;47.254;11.314;2023-08-06T03:40:46;1.77;;;1.67;;
20318;SDS011;10317;47.254;11.314;2023-08-06T03:43:12;1.88;;;1.77;;
20318;SDS011;10317;47.254;11.314;2023-08-06T03:45:37;2.70;;;2.15;;
20318;SDS011;10317;47.254;11.314;2023-08-06T03:48:03;1.73;;;1.63;;
20318;SDS011;10317;47.254;11.314;2023-08-06T03:50:29;2.20;;;2.00;;
20318;SDS011;10317;47.254;11.314;2023-08-06T03:52:55;1.90;;;1.80;;
20318;SDS011;10317;47.254;11.314;2023-08-06T03:55:20;1.80;;;1.67;;
20318;SDS011;10317;47.254;11.314;2023-08-06T03:57:46;1.88;;;1.77;;
20318;SDS011;10317;47.254;11.314;2023-08-06T04:00:12;4.65;;;1.80;;
20318;SDS011;10317;47.254;11.314;2023-08-06T04:02:38;4.60;;;2.15;;
20318;SDS011;10317;47.254;11.314;2023-08-06T04:05:03;2.00;;;1.88;;
20318;SDS011;10317;47.254;11.314;2023-08-06T04:07:29;2.00;;;1.90;;
20318;SDS011;10317;47.254;11.314;2023-08-06T04:09:57;1.90;;;1.80;;
20318;SDS011;10317;47.254;11.314;2023-08-06T04:12:24;1.85;;;1.75;;
20318;SDS011;10317;47.254;11.314;2023-08-06T04:14:50;2.60;;;2.40;;
20318;SDS011;10317;47.254;11.314;2023-08-06T04:17:17;3.15;;;1.95;;
20318;SDS011;10317;47.254;11.314;2023-08-06T04:19:49;2.10;;;2.00;;
20318;SDS011;10317;47.254;11.314;2023-08-06T04:22:16;1.70;;;1.60;;
20318;SDS011;10317;47.254;11.314;2023-08-06T04:24:42;1.60;;;1.50;;
20318;SDS011;10317;47.254;11.314;2023-08-06T04:27:09;1.45;;;1.38;;
20318;SDS011;10317;47.254;11.314;2023-08-06T04:29:35;4.20;;;2.15;;
20318;SDS011;10317;47.254;11.314;2023-08-06T04:32:01;1.67;;;1.58;;
20318;SDS011;10317;47.254;11.314;2023-08-06T04:34:27;1.70;;;1.60;;
20318;SDS011;10317;47.254;11.314;2023-08-06T04:36:52;5.70;;;2.05;;
20318;SDS011;10317;47.254;11.314;2023-08-06T04:39:18;1.70;;;1.60;;
20318;SDS011;10317;47.254;11.314;2023-08-06T04:41:44;1.77;;;1.67;;
20318;SDS011;10317;47.254;11.314;2023-08-06T04:44:09;2.03;;;1.92;;
20318;SDS011;10317;47.254;11.314;2023-08-06T04:46:35;1.63;;;1.52;;
20318;SDS011;10317;47.254;11.314;2023-08-06T04:49:01;1.42;;;1.42;;
20318;SDS011;10317;47.254;11.314;2023-08-06T04:51:26;1.92;;;1.40;;
20318;SDS011;10317;47.254;11.314;2023-08-06T04:53:52;4.47;;;2.10;;
20318;SDS011;10317;47.254;11.314;2023-08-06T04:56:18;5.07;;;1.65;;
20318;SDS011;10317;47.254;11.314;2023-08-06T04:58:44;1.52;;;1.42;;
20318;SDS011;10317;47.254;11.314;2023-08-06T05:01:09;2.22;;;1.90;;
20318;SDS011;10317;47.254;11.314;2023-08-06T05:03:35;1.42;;;1.40;;
20318;SDS011;10317;47.254;11.314;2023-08-06T05:06:01;1.40;;;1.40;;
20318;SDS011;10317;47.254;11.314;2023-08-06T05:08:26;1.35;;;1.35;;
20318;SDS011;10317;47.254;11.314;2023-08-06T05:10:52;1.20;;;1.20;;
20318;SDS011;10317;47.254;11.314;2023-08-06T05:13:17;2.55;;;2.30;;
20318;SDS011;10317;47.254;11.314;2023-08-06T05:15:43;1.52;;;1.42;;
20318;SDS011;10317;47.254;11.314;2023-08-06T05:18:11;1.80;;;1.70;;
20318;SDS011;10317;47.254;11.314;2023-08-06T05:20:40;2.00;;;1.75;;
20318;SDS011;10317;47.254;11.314;2023-08-06T05:23:06;2.10;;;2.00;;
20318;SDS011;10317;47.254;11.314;2023-08-06T05:25:34;1.65;;;1.50;;
20318;SDS011;10317;47.254;11.314;2023-08-06T05:28:00;2.17;;;2.08;;
20318;SDS011;10317;47.254;11.314;2023-08-06T05:30:26;5.18;;;1.77;;
20318;SDS011;10317;47.254;11.314;2023-08-06T05:32:52;2.35;;;2.15;;
20318;SDS011;10317;47.254;11.314;2023-08-06T05:35:18;1.77;;;1.67;;
20318;SDS011;10317;47.254;11.314;2023-08-06T05:37:44;1.50;;;1.50;;
20318;SDS011;10317;47.254;11.314;2023-08-06T05:40:10;2.28;;;1.90;;
20318;SDS011;10317;47.254;11.314;2023-08-06T05:42:36;6.80;;;1.60;;
20318;SDS011;10317;47.254;11.314;2023-08-06T05:45:02;4.78;;;2.08;;
20318;SDS011;10317;47.254;11.314;2023-08-06T05:47:28;2.80;;;1.63;;
20318;SDS011;10317;47.254;11.314;2023-08-06T05:49:53;1.83;;;1.73;;
20318;SDS011;10317;47.254;11.314;2023-08-06T05:52:19;2.95;;;1.80;;
20318;SDS011;10317;47.254;11.314;2023-08-06T05:54:45;2.58;;;1.98;;
20318;SDS011;10317;47.254;11.314;2023-08-06T05:57:10;1.83;;;1.73;;
20318;SDS011;10317;47.254;11.314;2023-08-06T05:59:36;2.28;;;1.92;;
20318;SDS011;10317;47.254;11.314;2023-08-06T06:02:02;2.60;;;2.00;;
20318;SDS011;10317;47.254;11.314;2023-08-06T06:04:28;4.22;;;1.85;;
20318;SDS011;10317;47.254;11.314;2023-08-06T06:06:53;1.95;;;1.52;;
20318;SDS011;10317;47.254;11.314;2023-08-06T06:09:19;1.13;;;1.10;;
20318;SDS011;10317;47.254;11.314;2023-08-06T06:11:45;1.40;;;1.40;;
20318;SDS011;10317;47.254;11.314;2023-08-06T06:14:10;2.17;;;1.33;;
20318;SDS011;10317;47.254;11.314;2023-08-06T06:16:36;1.45;;;1.35;;
20318;SDS011;10317;47.254;11.314;2023-08-06T06:19:02;1.23;;;1.23;;
20318;SDS011;10317;47.254;11.314;2023-08-06T06:21:27;3.17;;;1.50;;
20318;SDS011;10317;47.254;11.314;2023-08-06T06:23:53;1.23;;;1.23;;
20318;SDS011;10317;47.254;11.314;2023-08-06T06:26:19;3.80;;;1.15;;
20318;SDS011;10317;47.254;11.314;2023-08-06T06:28:44;1.48;;;1.38;;
20318;SDS011;10317;47.254;11.314;2023-08-06T06:31:10;1.20;;;1.20;;
20318;SDS011;10317;47.254;11.314;2023-08-06T06:33:36;1.60;;;1.50;;
20318;SDS011;10317;47.254;11.314;2023-08-06T06:36:02;1.20;;;1.20;;
20318;SDS011;10317;47.254;11.314;2023-08-06T06:38:32;3.33;;;1.10;;
20318;SDS011;10317;47.254;11.314;2023-08-06T06:40:59;2.75;;;1.20;;
20318;SDS011;10317;47.254;11.314;2023-08-06T06:43:25;1.40;;;1.30;;
20318;SDS011;10317;47.254;11.314;2023-08-06T06:45:57;1.38;;;1.30;;
20318;SDS011;10317;47.254;11.314;2023-08-06T06:48:27;1.30;;;1.20;;
20318;SDS011;10317;47.254;11.314;2023-08-06T06:50:54;1.02;;;1.00;;
20318;SDS011;10317;47.254;11.314;2023-08-06T06:53:20;1.25;;;1.25;;
20318;SDS011;10317;47.254;11.314;2023-08-06T06:55:52;1.17;;;1.17;;
20318;SDS011;10317;47.254;11.314;2023-08-06T06:58:18;2.70;;;1.08;;
20318;SDS011;10317;47.254;11.314;2023-08-06T07:00:44;0.90;;;0.90;;
20318;SDS011;10317;47.254;11.314;2023-08-06T07:03:11;0.68;;;0.68;;
20318;SDS011;10317;47.254;11.314;2023-08-06T07:05:37;0.80;;;0.80;;
20318;SDS011;10317;47.254;11.314;2023-08-06T07:08:02;0.90;;;0.90;;
20318;SDS011;10317;47.254;11.314;2023-08-06T07:10:28;0.60;;;0.60;;
20318;SDS011;10317;47.254;11.314;2023-08-06T07:12:54;0.80;;;0.80;;
20318;SDS011;10317;47.254;11.314;2023-08-06T07:15:19;0.77;;;0.77;;
20318;SDS011;10317;47.254;11.314;2023-08-06T07:17:45;0.80;;;0.80;;
20318;SDS011;10317;47.254;11.314;2023-08-06T07:20:11;1.35;;;1.10;;
20318;SDS011;10317;47.254;11.314;2023-08-06T07:22:36;1.67;;;1.00;;
20318;SDS011;10317;47.254;11.314;2023-08-06T07:25:02;1.17;;;1.17;;
20318;SDS011;10317;47.254;11.314;2023-08-06T07:27:28;1.67;;;1.08;;
20318;SDS011;10317;47.254;11.314;2023-08-06T07:29:54;0.82;;;0.82;;
20318;SDS011;10317;47.254;11.314;2023-08-06T07:32:19;3.45;;;1.15;;
20318;SDS011;10317;47.254;11.314;2023-08-06T07:34:45;1.13;;;1.13;;
20318;SDS011;10317;47.254;11.314;2023-08-06T07:37:11;1.15;;;1.15;;
20318;SDS011;10317;47.254;11.314;2023-08-06T07:39:36;1.63;;;1.33;;
20318;SDS011;10317;47.254;11.314;2023-08-06T07:42:04;1.13;;;1.08;;
20318;SDS011;10317;47.254;11.314;2023-08-06T07:44:32;1.70;;;1.50;;
20318;SDS011;10317;47.254;11.314;2023-08-06T07:46:57;1.02;;;1.02;;
20318;SDS011;10317;47.254;11.314;2023-08-06T07:49:23;1.23;;;1.02;;
20318;SDS011;10317;47.254;11.314;2023-08-06T07:51:49;1.95;;;1.45;;
20318;SDS011;10317;47.254;11.314;2023-08-06T07:54:17;4.55;;;1.45;;
20318;SDS011;10317;47.254;11.314;2023-08-06T07:56:45;1.30;;;1.30;;
20318;SDS011;10317;47.254;11.314;2023-08-06T07:59:23;1.80;;;1.23;;
20318;SDS011;10317;47.254;11.314;2023-08-06T08:01:51;1.30;;;1.30;;
20318;SDS011;10317;47.254;11.314;2023-08-06T08:04:26;1.35;;;1.30;;
20318;SDS011;10317;47.254;11.314;2023-08-06T08:07:02;3.13;;;1.20;;
20318;SDS011;10317;47.254;11.314;2023-08-06T08:09:36;2.72;;;1.40;;
20318;SDS011;10317;47.254;11.314;2023-08-06T08:12:05;1.35;;;1.35;;
20318;SDS011;10317;47.254;11.314;2023-08-06T08:14:31;1.88;;;1.33;;
20318;SDS011;10317;47.254;11.314;2023-08-06T08:17:04;2.55;;;1.35;;
20318;SDS011;10317;47.254;11.314;2023-08-06T08:19:31;1.13;;;1.13;;
20318;SDS011;10317;47.254;11.314;2023-08-06T08:21:57;1.83;;;1.45;;
20318;SDS011;10317;47.254;11.314;2023-08-06T08:24:23;1.40;;;1.30;;
20318;SDS011;10317;47.254;11.314;2023-08-06T08:26:51;1.02;;;1.02;;
20318;SDS011;10317;47.254;11.314;2023-08-06T08:29:19;2.13;;;1.33;;
20318;SDS011;10317;47.254;11.314;2023-08-06T08:31:46;2.42;;;1.42;;
20318;SDS011;10317;47.254;11.314;2023-08-06T08:34:14;1.17;;;1.17;;
20318;SDS011;10317;47.254;11.314;2023-08-06T08:36:40;1.23;;;1.23;;
20318;SDS011;10317;47.254;11.314;2023-08-06T08:39:08;1.38;;;1.27;;
20318;SDS011;10317;47.254;11.314;2023-08-06T08:41:35;1.35;;;1.35;;
20318;SDS011;10317;47.254;11.314;2023-08-06T08:44:04;1.30;;;1.30;;
20318;SDS011;10317;47.254;11.314;2023-08-06T08:46:47;1.40;;;1.40;;
20318;SDS011;10317;47.254;11.314;2023-08-06T08:49:40;1.48;;;1.40;;
20318;SDS011;10317;47.254;11.314;2023-08-06T08:52:14;2.22;;;1.20;;
20318;SDS011;10317;47.254;11.314;2023-08-06T08:54:45;1.42;;;1.38;;
20318;SDS011;10317;47.254;11.314;2023-08-06T08:57:19;1.40;;;1.30;;
20318;SDS011;10317;47.254;11.314;2023-08-06T08:59:46;1.50;;;1.42;;
20318;SDS011;10317;47.254;11.314;2023-08-06T09:02:19;1.80;;;1.20;;
20318;SDS011;10317;47.254;11.314;2023-08-06T09:04:48;1.20;;;1.20;;
20318;SDS011;10317;47.254;11.314;2023-08-06T09:07:16;1.10;;;1.10;;
20318;SDS011;10317;47.254;11.314;2023-08-06T09:09:48;1.33;;;1.23;;
20318;SDS011;10317;47.254;11.314;2023-08-06T09:12:17;1.50;;;1.17;;
20318;SDS011;10317;47.254;11.314;2023-08-06T09:14:43;2.35;;;1.20;;
20318;SDS011;10317;47.254;11.314;2023-08-06T09:17:09;1.30;;;1.30;;
20318;SDS011;10317;47.254;11.314;2023-08-06T09:19:41;1.73;;;1.63;;
20318;SDS011;10317;47.254;11.314;2023-08-06T09:22:12;4.00;;;1.13;;
20318;SDS011;10317;47.254;11.314;2023-08-06T09:24:39;1.55;;;0.88;;
20318;SDS011;10317;47.254;11.314;2023-08-06T09:27:10;1.00;;;1.00;;
20318;SDS011;10317;47.254;11.314;2023-08-06T09:29:40;1.98;;;1.10;;
20318;SDS011;10317;47.254;11.314;2023-08-06T09:32:07;2.00;;;1.13;;
20318;SDS011;10317;47.254;11.314;2023-08-06T09:34:32;1.00;;;1.00;;
20318;SDS011;10317;47.254;11.314;2023-08-06T09:36:58;1.30;;;1.30;;
20318;SDS011;10317;47.254;11.314;2023-08-06T09:39:30;0.80;;;0.80;;
20318;SDS011;10317;47.254;11.314;2023-08-06T09:41:56;0.80;;;0.80;;
20318;SDS011;10317;47.254;11.314;2023-08-06T09:44:24;1.08;;;0.88;;
20318;SDS011;10317;47.254;11.314;2023-08-06T09:46:51;0.60;;;0.60;;
20318;SDS011;10317;47.254;11.314;2023-08-06T09:49:19;1.13;;;0.57;;
20318;SDS011;10317;47.254;11.314;2023-08-06T09:51:46;0.70;;;0.70;;
20318;SDS011;10317;47.254;11.314;2023-08-06T09:54:16;0.70;;;0.52;;
20318;SDS011;10317;47.254;11.314;2023-08-06T09:56:42;0.60;;;0.60;;
20318;SDS011;10317;47.254;11.314;2023-08-06T09:59:08;0.60;;;0.60;;
20318;SDS011;10317;47.254;11.314;2023-08-06T10:01:36;0.60;;;0.60;;
20318;SDS011;10317;47.254;11.314;2023-08-06T10:04:03;1.17;;;0.50;;
20318;SDS011;10317;47.254;11.314;2023-08-06T10:06:31;0.77;;;0.60;;
20318;SDS011;10317;47.254;11.314;2023-08-06T10:09:00;3.28;;;0.50;;
20318;SDS011;10317;47.254;11.314;2023-08-06T10:11:26;0.60;;;0.60;;
20318;SDS011;10317;47.254;11.314;2023-08-06T10:13:55;0.50;;;0.50;;
20318;SDS011;10317;47.254;11.314;2023-08-06T10:16:41;1.45;;;0.50;;
20318;SDS011;10317;47.254;11.314;2023-08-06T10:19:09;0.60;;;0.60;;
20318;SDS011;10317;47.254;11.314;2023-08-06T10:21:38;2.63;;;0.30;;
20318;SDS011;10317;47.254;11.314;2023-08-06T10:24:03;0.40;;;0.40;;
20318;SDS011;10317;47.254;11.314;2023-08-06T10:26:35;0.32;;;0.32;;
20318;SDS011;10317;47.254;11.314;2023-08-06T10:29:01;0.85;;;0.52;;
20318;SDS011;10317;47.254;11.314;2023-08-06T10:31:53;0.40;;;0.40;;
20318;SDS011;10317;47.254;11.314;2023-08-06T10:34:20;0.40;;;0.40;;
20318;SDS011;10317;47.254;11.314;2023-08-06T10:36:46;0.60;;;0.60;;
20318;SDS011;10317;47.254;11.314;2023-08-06T10:39:15;0.57;;;0.57;;
20318;SDS011;10317;47.254;11.314;2023-08-06T10:41:59;0.65;;;0.60;;
20318;SDS011;10317;47.254;11.314;2023-08-06T10:45:18;0.60;;;0.60;;
20318;SDS011;10317;47.254;11.314;2023-08-06T10:47:46;0.88;;;0.65;;
20318;SDS011;10317;47.254;11.314;2023-08-06T10:50:13;0.60;;;0.60;;
20318;SDS011;10317;47.254;11.314;2023-08-06T10:58:31;1.98;;;0.50;;
20318;SDS011;10317;47.254;11.314;2023-08-06T11:03:42;0.63;;;0.63;;
20318;SDS011;10317;47.254;11.314;2023-08-06T11:09:22;0.40;;;0.40;;
20318;SDS011;10317;47.254;11.314;2023-08-06T11:14:50;0.32;;;0.30;;
20318;SDS011;10317;47.254;11.314;2023-08-06T11:17:33;0.85;;;0.40;;
20318;SDS011;10317;47.254;11.314;2023-08-06T11:20:19;0.40;;;0.40;;
20318;SDS011;10317;47.254;11.314;2023-08-06T11:23:01;2.17;;;0.40;;
20318;SDS011;10317;47.254;11.314;2023-08-06T11:25:44;0.50;;;0.50;;
20318;SDS011;10317;47.254;11.314;2023-08-06T11:28:31;1.48;;;0.60;;
20318;SDS011;10317;47.254;11.314;2023-08-06T11:31:08;0.45;;;0.45;;
20318;SDS011;10317;47.254;11.314;2023-08-06T11:33:54;2.42;;;0.40;;
20318;SDS011;10317;47.254;11.314;2023-08-06T11:39:22;0.55;;;0.55;;
20318;SDS011;10317;47.254;11.314;2023-08-06T11:41:48;0.38;;;0.38;;
20318;SDS011;10317;47.254;11.314;2023-08-06T11:44:13;0.40;;;0.40;;
20318;SDS011;10317;47.254;11.314;2023-08-06T11:47:00;0.28;;;0.28;;
20318;SDS011;10317;47.254;11.314;2023-08-06T11:49:37;8.95;;;0.60;;
20318;SDS011;10317;47.254;11.314;2023-08-06T11:54:59;0.50;;;0.50;;
20318;SDS011;10317;47.254;11.314;2023-08-06T11:57:31;0.32;;;0.32;;
20318;SDS011;10317;47.254;11.314;2023-08-06T12:00:05;0.65;;;0.40;;
20318;SDS011;10317;47.254;11.314;2023-08-06T12:02:34;0.38;;;0.38;;
20318;SDS011;10317;47.254;11.314;2023-08-06T12:05:10;0.25;;;0.25;;
20318;SDS011;10317;47.254;11.314;2023-08-06T12:07:44;0.38;;;0.32;;
20318;SDS011;10317;47.254;11.314;2023-08-06T12:10:14;0.30;;;0.30;;
20318;SDS011;10317;47.254;11.314;2023-08-06T12:12:47;0.40;;;0.40;;
20318;SDS011;10317;47.254;11.314;2023-08-06T12:15:13;0.32;;;0.32;;
20318;SDS011;10317;47.254;11.314;2023-08-06T12:17:39;1.52;;;0.50;;
20318;SDS011;10317;47.254;11.314;2023-08-06T12:20:06;2.50;;;0.30;;
20318;SDS011;10317;47.254;11.314;2023-08-06T12:22:33;0.20;;;0.20;;
20318;SDS011;10317;47.254;11.314;2023-08-06T12:25:10;0.55;;;0.38;;
20318;SDS011;10317;47.254;11.314;2023-08-06T12:27:42;0.30;;;0.30;;
20318;SDS011;10317;47.254;11.314;2023-08-06T12:30:12;0.30;;;0.30;;
20318;SDS011;10317;47.254;11.314;2023-08-06T12:32:38;0.40;;;0.40;;
20318;SDS011;10317;47.254;11.314;2023-08-06T12:35:10;0.32;;;0.32;;
20318;SDS011;10317;47.254;11.314;2023-08-06T12:37:36;1.65;;;0.50;;
20318;SDS011;10317;47.254;11.314;2023-08-06T12:40:04;0.50;;;0.50;;
20318;SDS011;10317;47.254;11.314;2023-08-06T12:42:30;3.85;;;0.50;;
20318;SDS011;10317;47.254;11.314;2023-08-06T12:44:56;0.35;;;0.35;;
20318;SDS011;10317;47.254;11.314;2023-08-06T12:47:21;0.30;;;0.30;;
20318;SDS011;10317;47.254;11.314;2023-08-06T12:49:47;0.70;;;0.47;;
20318;SDS011;10317;47.254;11.314;2023-08-06T12:52:14;0.32;;;0.32;;
20318;SDS011;10317;47.254;11.314;2023-08-06T12:54:41;0.47;;;0.47;;
20318;SDS011;10317;47.254;11.314;2023-08-06T12:57:07;0.40;;;0.40;;
20318;SDS011;10317;47.254;11.314;2023-08-06T12:59:43;0.57;;;0.40;;
20318;SDS011;10317;47.254;11.314;2023-08-06T13:02:09;0.40;;;0.40;;
20318;SDS011;10317;47.254;11.314;2023-08-06T13:04:34;0.30;;;0.30;;
20318;SDS011;10317;47.254;11.314;2023-08-06T13:07:00;0.30;;;0.30;;
20318;SDS011;10317;47.254;11.314;2023-08-06T13:09:26;0.40;;;0.40;;
20318;SDS011;10317;47.254;11.314;2023-08-06T13:11:52;0.30;;;0.30;;
20318;SDS011;10317;47.254;11.314;2023-08-06T13:14:21;0.40;;;0.40;;
20318;SDS011;10317;47.254;11.314;2023-08-06T13:16:55;0.30;;;0.30;;
20318;SDS011;10317;47.254;11.314;2023-08-06T13:19:29;0.30;;;0.30;;
20318;SDS011;10317;47.254;11.314;2023-08-06T13:24:44;0.22;;;0.22;;
20318;SDS011;10317;47.254;11.314;2023-08-06T13:27:10;1.55;;;0.30;;
20318;SDS011;10317;47.254;11.314;2023-08-06T13:29:36;0.20;;;0.20;;
20318;SDS011;10317;47.254;11.314;2023-08-06T13:32:02;0.20;;;0.20;;
20318;SDS011;10317;47.254;11.314;2023-08-06T13:34:27;0.20;;;0.20;;
20318;SDS011;10317;47.254;11.314;2023-08-06T13:36:53;0.30;;;0.30;;
20318;SDS011;10317;47.254;11.314;2023-08-06T13:39:19;0.20;;;0.20;;
20318;SDS011;10317;47.254;11.314;2023-08-06T13:41:59;0.32;;;0.32;;
20318;SDS011;10317;47.254;11.314;2023-08-06T13:44:49;0.20;;;0.20;;
20318;SDS011;10317;47.254;11.314;2023-08-06T13:50:11;0.30;;;0.30;;
20318;SDS011;10317;47.254;11.314;2023-08-06T13:53:04;1.17;;;0.40;;
20318;SDS011;10317;47.254;11.314;2023-08-06T13:56:09;0.30;;;0.30;;
20318;SDS011;10317;47.254;11.314;2023-08-06T13:58:59;0.20;;;0.20;;
20318;SDS011;10317;47.254;11.314;2023-08-06T14:01:45;2.72;;;0.30;;
20318;SDS011;10317;47.254;11.314;2023-08-06T14:04:22;0.38;;;0.38;;
20318;SDS011;10317;47.254;11.314;2023-08-06T14:07:05;0.30;;;0.30;;
20318;SDS011;10317;47.254;11.314;2023-08-06T14:09:44;0.30;;;0.30;;
20318;SDS011;10317;47.254;11.314;2023-08-06T14:15:20;0.20;;;0.20;;
20318;SDS011;10317;47.254;11.314;2023-08-06T14:17:48;0.30;;;0.30;;
20318;SDS011;10317;47.254;11.314;2023-08-06T14:20:35;0.30;;;0.30;;
20318;SDS011;10317;47.254;11.314;2023-08-06T14:45:50;0.22;;;0.22;;
20318;SDS011;10317;47.254;11.314;2023-08-06T15:02:25;0.30;;;0.30;;
20318;SDS011;10317;47.254;11.314;2023-08-06T15:08:02;0.20;;;0.20;;
20318;SDS011;10317;47.254;11.314;2023-08-06T15:11:13;0.20;;;0.20;;
20318;SDS011;10317;47.254;11.314;2023-08-06T15:14:24;0.20;;;0.20;;
20318;SDS011;10317;47.254;11.314;2023-08-06T15:17:23;0.20;;;0.20;;
20318;SDS011;10317;47.254;11.314;2023-08-06T15:20:15;0.43;;;0.30;;
20318;SDS011;10317;47.254;11.314;2023-08-06T15:23:18;0.20;;;0.20;;
20318;SDS011;10317;47.254;11.314;2023-08-06T15:28:30;0.20;;;0.20;;
20318;SDS011;10317;47.254;11.314;2023-08-06T15:36:27;0.30;;;0.30;;
20318;SDS011;10317;47.254;11.314;2023-08-06T15:58:56;0.40;;;0.40;;
20318;SDS011;10317;47.254;11.314;2023-08-06T16:01:54;0.30;;;0.30;;
20318;SDS011;10317;47.254;11.314;2023-08-06T16:04:34;1.35;;;0.30;;
20318;SDS011;10317;47.254;11.314;2023-08-06T16:08:00;0.20;;;0.20;;
20318;SDS011;10317;47.254;11.314;2023-08-06T16:20:45;0.20;;;0.20;;
20318;SDS011;10317;47.254;11.314;2023-08-06T16:25:47;0.30;;;0.30;;
20318;SDS011;10317;47.254;11.314;2023-08-06T16:28:27;0.30;;;0.30;;
20318;SDS011;10317;47.254;11.314;2023-08-06T16:31:11;0.30;;;0.30;;
20318;SDS011;10317;47.254;11.314;2023-08-06T17:02:00;0.30;;;0.30;;
20318;SDS011;10317;47.254;11.314;2023-08-06T17:04:56;0.30;;;0.30;;
20318;SDS011;10317;47.254;11.314;2023-08-06T17:30:47;0.38;;;0.38;;
20318;SDS011;10317;47.254;11.314;2023-08-06T17:33:18;0.30;;;0.30;;
20318;SDS011;10317;47.254;11.314;2023-08-06T17:57:06;0.40;;;0.40;;
20318;SDS011;10317;47.254;11.314;2023-08-06T17:59:31;0.38;;;0.38;;
20318;SDS011;10317;47.254;11.314;2023-08-06T18:01:57;0.40;;;0.40;;